Terminal Aerodrome Forecast
Issued by NWS Charleston, WV

Home | Current Version | Previous Version | Text Only | Print | Product List | Glossary On
Versions: 1 2 3 4 5 6 7 8 9 10 11 12 13 14 15 16 17 18 19 20 21 22 23 24 25 26 27 28
447
FTUS41 KRLX 252335
TAFHTS
TAF
KHTS 252335Z 2600/2624 00000KT P6SM SCT040
     FM260800 00000KT 5SM BR SCT040
     FM261200 21003KT P6SM BKN035
     FM261900 22003KT 6SM SHRA VCTS OVC035CB
     FM262000 23004KT 5SM SHRA VCTS OVC040CB
     FM262300 22004KT 6SM SHRA VCTS BKN060CB=

USA.gov is the U.S. government's official web portal to all federal, state and local government web resources and services.